Time;durP1;ratioP1;P1;durP2;ratioP2;P2;SDS_P1;SDS_P2;PMS_P1;PMS_P2;Temp;Humidity;BMP_temperature;BMP_pressure;BME280_temperature;BME280_humidity;BME280_pressure;Samples;Min_cycle;Max_cycle;Signal;HPM_P1;HPM_P2
2022/06/21 00:01:03;;;;;;;;;;;;;;;12.02;100.00;99073.47;5090008;28;19925;-78
2022/06/21 00:03:30;;;;;;;;;;;;;;;11.86;100.00;99062.19;5089764;28;19925;-78
2022/06/21 00:05:58;;;;;;;;;;;;;;;12.06;100.00;99059.38;5086275;28;20288;-78
2022/06/21 00:08:27;;;;;;;;;;;;;;;12.12;100.00;99064.03;5076979;28;20393;-78
2022/06/21 00:10:54;;;;;;;;;;;;;;;11.79;100.00;99064.34;5088542;28;19935;-78
2022/06/21 00:13:25;;;;;;;;;;;;;;;11.52;100.00;99069.28;5089354;28;19925;-78
2022/06/21 00:15:55;;;;;;;;;;;;;;;10.89;100.00;99060.03;5090779;28;19925;-77
2022/06/21 00:18:24;;;;;;;;;;;;;;;11.59;100.00;99058.72;5089098;28;20271;-77
2022/06/21 00:20:51;;;;;;;;;;;;;;;11.97;100.00;99057.16;5089548;28;19976;-78
2022/06/21 00:23:20;;;;;;;;;;;;;;;12.23;100.00;99047.00;5090359;28;19962;-78
2022/06/21 00:25:47;;;;;;;;;;;;;;;12.53;100.00;99050.28;5090596;28;19929;-78
2022/06/21 00:28:15;;;;;;;;;;;;;;;11.68;100.00;99044.19;5075630;28;20302;-78
2022/06/21 00:30:42;;;;;;;;;;;;;;;11.86;100.00;99045.41;5068330;28;20352;-77
2022/06/21 00:33:14;;;;;;;;;;;;;;;12.23;100.00;99035.78;5087885;28;19924;-77
2022/06/21 00:35:42;;;;;;;;;;;;;;;12.34;100.00;99037.09;5090160;28;19931;-78
2022/06/21 00:38:12;;;;;;;;;;;;;;;12.54;100.00;99039.88;5090133;28;19974;-78
2022/06/21 00:40:39;;;;;;;;;;;;;;;12.57;100.00;99033.38;5088597;28;19978;-78
2022/06/21 00:43:09;;;;;;;;;;;;;;;12.60;100.00;99032.50;5076250;28;19933;-77
2022/06/21 00:45:37;;;;;;;;;;;;;;;11.93;100.00;99033.25;5075423;28;19924;-78
2022/06/21 00:48:13;;;;;;;;;;;;;;;11.64;100.00;99043.47;5075260;28;19925;-78
2022/06/21 00:50:44;;;;;;;;;;;;;;;12.06;100.00;99036.97;5060934;28;20315;-77
2022/06/21 00:53:11;;;;;;;;;;;;;;;12.21;100.00;99033.41;5056515;28;20360;-78
2022/06/21 00:55:53;;;;;;;;;;;;;;;12.13;100.00;99032.00;5056151;28;19932;-78
2022/06/21 00:58:22;;;;;;;;;;;;;;;12.16;100.00;99025.53;5056300;28;20303;-78
2022/06/21 01:00:55;;;;;;;;;;;;;;;12.36;100.00;99017.84;5056308;28;19925;-77
2022/06/21 01:03:25;;;;;;;;;;;;;;;12.26;100.00;99012.50;5056202;28;19929;-78
2022/06/21 01:05:53;;;;;;;;;;;;;;;11.57;100.00;99010.78;5056106;28;19929;-78
2022/06/21 01:08:24;;;;;;;;;;;;;;;10.96;100.00;99006.81;5055837;28;19925;-77
2022/06/21 01:10:54;;;;;;;;;;;;;;;11.81;100.00;99019.94;5056127;28;20264;-77
2022/06/21 01:13:23;;;;;;;;;;;;;;;11.72;100.00;99023.31;5054859;28;19932;-78
2022/06/21 01:15:51;;;;;;;;;;;;;;;11.68;100.00;99017.00;5055970;28;20016;-77
2022/06/21 01:18:19;;;;;;;;;;;;;;;11.25;100.00;99019.06;5054540;28;19932;-77
2022/06/21 01:20:48;;;;;;;;;;;;;;;10.95;100.00;99016.41;5054448;28;19931;-77
2022/06/21 01:23:35;;;;;;;;;;;;;;;11.15;100.00;99017.25;5055866;28;19931;-77
2022/06/21 01:26:21;;;;;;;;;;;;;;;11.37;100.00;99012.84;5053847;28;19924;-77
2022/06/21 01:28:50;;;;;;;;;;;;;;;11.74;100.00;99020.09;5074182;28;19960;-77
2022/06/21 01:31:17;;;;;;;;;;;;;;;11.97;100.00;99012.38;5075244;28;19925;-77
2022/06/21 01:33:44;;;;;;;;;;;;;;;11.84;100.00;99008.66;5075549;28;19956;-77
2022/06/21 01:36:15;;;;;;;;;;;;;;;11.32;100.00;99015.31;5075533;28;19931;-77
2022/06/21 01:39:03;;;;;;;;;;;;;;;11.09;100.00;99018.97;5075277;28;19925;-77
2022/06/21 01:41:40;;;;;;;;;;;;;;;11.99;100.00;99009.13;5075366;28;20544;-77
2022/06/21 01:44:16;;;;;;;;;;;;;;;12.08;100.00;99012.94;5075521;28;19932;-77
2022/06/21 01:46:43;;;;;;;;;;;;;;;11.54;100.00;99017.25;5075235;28;20058;-77
2022/06/21 01:49:11;;;;;;;;;;;;;;;12.09;100.00;99022.91;5074980;28;20015;-78
2022/06/21 01:51:42;;;;;;;;;;;;;;;11.68;100.00;99039.38;5073943;28;19925;-77
2022/06/21 01:54:11;;;;;;;;;;;;;;;12.07;100.00;99032.97;5074263;28;19924;-77
2022/06/21 01:56:38;;;;;;;;;;;;;;;12.27;100.00;99034.47;5075196;28;19929;-77
2022/06/21 01:59:18;;;;;;;;;;;;;;;11.82;100.00;99039.09;5073645;28;19932;-77
2022/06/21 02:01:50;;;;;;;;;;;;;;;12.13;100.00;99039.63;5073532;28;20379;-77
2022/06/21 02:04:20;;;;;;;;;;;;;;;12.34;100.00;99033.53;5073628;28;19924;-77
2022/06/21 02:06:50;;;;;;;;;;;;;;;11.86;100.00;99031.41;5074815;28;20028;-77
2022/06/21 02:09:22;;;;;;;;;;;;;;;11.18;100.00;99044.34;5073564;28;19924;-77
2022/06/21 02:12:01;;;;;;;;;;;;;;;11.04;100.00;99044.63;5073508;28;19925;-77
2022/06/21 02:14:29;;;;;;;;;;;;;;;11.58;100.00;99034.78;5073561;28;20026;-77
2022/06/21 02:17:04;;;;;;;;;;;;;;;11.84;100.00;99044.25;5074521;28;19924;-77
2022/06/21 02:19:38;;;;;;;;;;;;;;;11.88;100.00;99030.97;5074476;28;20023;-77
2022/06/21 02:22:06;;;;;;;;;;;;;;;11.95;100.00;99026.00;5074545;28;19968;-77
2022/06/21 02:24:33;;;;;;;;;;;;;;;10.66;100.00;99024.50;5056818;28;19924;-77
2022/06/21 02:27:01;;;;;;;;;;;;;;;10.02;100.00;99031.50;5074228;28;20023;-77
2022/06/21 02:29:29;;;;;;;;;;;;;;;10.84;100.00;99024.22;5072918;28;19978;-77
2022/06/21 02:31:57;;;;;;;;;;;;;;;11.18;100.00;99019.19;5074296;28;19939;-77
2022/06/21 02:34:31;;;;;;;;;;;;;;;11.51;100.00;99022.94;5074142;28;19929;-77
2022/06/21 02:37:01;;;;;;;;;;;;;;;11.04;100.00;99011.09;5074296;28;20035;-77
2022/06/21 02:39:28;;;;;;;;;;;;;;;10.83;100.00;99011.44;5074146;28;20375;-77
2022/06/21 02:41:57;;;;;;;;;;;;;;;11.38;100.00;99008.00;5056536;28;20356;-77
2022/06/21 02:44:27;;;;;;;;;;;;;;;11.63;100.00;99002.72;5072622;28;19956;-77
2022/06/21 02:47:02;;;;;;;;;;;;;;;11.66;100.00;98997.03;5072744;28;19948;-77
2022/06/21 02:49:35;;;;;;;;;;;;;;;12.19;100.00;98991.03;5074449;28;20279;-77
2022/06/21 02:52:10;;;;;;;;;;;;;;;12.14;100.00;98979.56;5073890;28;20027;-77
2022/06/21 02:54:49;;;;;;;;;;;;;;;11.79;100.00;98983.97;5073814;28;20364;-77
2022/06/21 02:57:25;;;;;;;;;;;;;;;12.42;100.00;98976.06;5072841;28;19931;-77
2022/06/21 02:59:53;;;;;;;;;;;;;;;12.24;100.00;98975.72;5073831;28;19927;-77
2022/06/21 03:02:23;;;;;;;;;;;;;;;12.10;100.00;98985.25;5072478;28;19934;-77
2022/06/21 03:04:56;;;;;;;;;;;;;;;12.24;100.00;98986.94;5055213;28;19935;-77
2022/06/21 03:07:28;;;;;;;;;;;;;;;12.58;100.00;98985.28;5052597;28;19932;-77
2022/06/21 03:09:56;;;;;;;;;;;;;;;12.69;100.00;98980.19;5053682;28;19935;-77
2022/06/21 03:12:25;;;;;;;;;;;;;;;12.94;100.00;98975.94;5052360;28;20296;-77
2022/06/21 03:14:55;;;;;;;;;;;;;;;12.28;100.00;98971.59;5053532;28;20013;-77
2022/06/21 03:17:30;;;;;;;;;;;;;;;12.41;100.00;98980.13;5053484;28;19999;-78
2022/06/21 03:19:56;;;;;;;;;;;;;;;11.74;100.00;98981.69;5053626;28;19967;-77
2022/06/21 03:22:26;;;;;;;;;;;;;;;11.68;100.00;98983.41;5053594;28;20268;-77
2022/06/21 03:24:55;;;;;;;;;;;;;;;12.03;100.00;98977.03;5052349;28;19929;-77
2022/06/21 03:27:34;;;;;;;;;;;;;;;12.20;100.00;98984.22;5053495;28;19925;-77
2022/06/21 03:30:01;;;;;;;;;;;;;;;11.93;100.00;98978.06;5052915;28;20402;-77
2022/06/21 03:32:36;;;;;;;;;;;;;;;12.35;100.00;98971.47;5053571;28;20422;-77
2022/06/21 03:35:05;;;;;;;;;;;;;;;12.56;100.00;98964.53;5053504;28;19924;-77
2022/06/21 03:37:34;;;;;;;;;;;;;;;12.54;100.00;98962.16;5052321;28;20016;-77
2022/06/21 03:42:50;;;;;;;;;;;;;;;11.62;100.00;98945.97;5052306;28;19925;-77
2022/06/21 03:45:21;;;;;;;;;;;;;;;12.13;100.00;98938.81;5053233;28;19925;-77
2022/06/21 03:47:55;;;;;;;;;;;;;;;12.17;100.00;98937.50;5053395;28;20018;-77
2022/06/21 03:50:34;;;;;;;;;;;;;;;12.48;100.00;98933.09;5053289;28;19924;-77
2022/06/21 03:53:05;;;;;;;;;;;;;;;12.14;100.00;98935.56;5053380;28;19952;-77
2022/06/21 03:55:44;;;;;;;;;;;;;;;11.85;100.00;98937.44;5053249;28;19924;-77
2022/06/21 03:58:30;;;;;;;;;;;;;;;12.03;100.00;98926.63;5035492;28;20399;-77
2022/06/21 04:00:58;;;;;;;;;;;;;;;11.16;100.00;98931.34;5053137;28;20308;-77
2022/06/21 04:03:37;;;;;;;;;;;;;;;11.28;100.00;98925.91;5051860;28;19935;-77
2022/06/21 04:06:07;;;;;;;;;;;;;;;10.91;100.00;98934.63;5053194;28;19932;-77
2022/06/21 04:08:40;;;;;;;;;;;;;;;11.25;100.00;98932.38;5051944;28;20456;-77
2022/06/21 04:11:16;;;;;;;;;;;;;;;11.64;100.00;98935.13;5053110;28;19925;-77
2022/06/21 04:13:54;;;;;;;;;;;;;;;11.78;100.00;98934.03;5052867;28;20034;-77
2022/06/21 04:16:21;;;;;;;;;;;;;;;11.60;100.00;98937.16;5052676;28;19924;-77
2022/06/21 04:18:48;;;;;;;;;;;;;;;11.45;100.00;98946.34;5055590;28;20277;-77
2022/06/21 04:21:15;;;;;;;;;;;;;;;11.72;100.00;98947.72;5057141;28;19929;-77
2022/06/21 04:23:58;;;;;;;;;;;;;;;11.36;100.00;98938.50;5056552;28;19967;-77
2022/06/21 04:26:40;;;;;;;;;;;;;;;11.17;100.00;98947.69;5056484;28;20399;-77
2022/06/21 04:29:29;;;;;;;;;;;;;;;11.66;100.00;98946.66;5055862;28;20375;-77
2022/06/21 04:32:04;;;;;;;;;;;;;;;11.93;100.00;98952.88;5066544;28;19929;-77
2022/06/21 04:34:46;;;;;;;;;;;;;;;12.09;100.00;98955.69;5072319;28;19932;-77
2022/06/21 04:37:18;;;;;;;;;;;;;;;12.31;100.00;98965.13;5076483;28;19924;-77
2022/06/21 04:39:57;;;;;;;;;;;;;;;12.35;100.00;98962.25;5076266;28;19924;-77
2022/06/21 04:42:34;;;;;;;;;;;;;;;12.23;100.00;98966.56;5075639;28;19932;-77
2022/06/21 04:45:28;;;;;;;;;;;;;;;12.00;100.00;98960.28;5076386;28;19924;-77
2022/06/21 04:48:24;;;;;;;;;;;;;;;11.48;100.00;98962.25;5070803;28;19948;-76
2022/06/21 04:50:55;;;;;;;;;;;;;;;10.83;100.00;98967.53;5066111;28;20007;-77
2022/06/21 04:53:26;;;;;;;;;;;;;;;11.55;100.00;98970.47;5072161;28;20014;-77
2022/06/21 04:55:54;;;;;;;;;;;;;;;11.44;100.00;98967.13;5060118;28;19948;-77
2022/06/21 04:58:21;;;;;;;;;;;;;;;11.50;100.00;98977.38;5073563;28;19925;-77
2022/06/21 05:00:48;;;;;;;;;;;;;;;11.12;100.00;98973.34;5076231;28;19930;-77
2022/06/21 05:03:29;;;;;;;;;;;;;;;11.87;100.00;98979.00;5067894;28;20009;-77
2022/06/21 05:05:56;;;;;;;;;;;;;;;11.93;100.00;98966.06;5072190;28;19932;-77
2022/06/21 05:08:24;;;;;;;;;;;;;;;11.87;100.00;98974.22;5073062;28;19924;-77
2022/06/21 05:10:54;;;;;;;;;;;;;;;12.28;100.00;98971.59;5074523;28;20336;-77
2022/06/21 05:13:26;;;;;;;;;;;;;;;12.22;100.00;98973.34;5071635;28;20079;-77
2022/06/21 05:15:55;;;;;;;;;;;;;;;12.63;100.00;98962.31;5070129;28;19931;-77
2022/06/21 05:18:33;;;;;;;;;;;;;;;13.01;100.00;98961.78;5095530;28;19940;-77
2022/06/21 05:21:06;;;;;;;;;;;;;;;13.15;100.00;98956.56;5052956;28;20015;-77
2022/06/21 05:23:34;;;;;;;;;;;;;;;13.13;100.00;98963.84;5068564;28;19929;-77
2022/06/21 05:26:04;;;;;;;;;;;;;;;12.58;100.00;98962.06;5056876;28;19941;-77
2022/06/21 05:28:38;;;;;;;;;;;;;;;12.78;100.00;98957.91;5065879;28;19939;-77
2022/06/21 05:31:11;;;;;;;;;;;;;;;13.51;100.00;98953.53;5071918;28;20439;-77
2022/06/21 05:33:41;;;;;;;;;;;;;;;13.79;100.00;98950.66;5041609;28;19978;-77
2022/06/21 05:36:13;;;;;;;;;;;;;;;13.33;100.00;98942.81;5074117;28;20353;-77
2022/06/21 05:38:49;;;;;;;;;;;;;;;12.82;100.00;98943.03;5069821;28;19924;-77
2022/06/21 05:41:29;;;;;;;;;;;;;;;13.21;100.00;98954.00;5063845;28;19964;-77
2022/06/21 05:43:58;;;;;;;;;;;;;;;13.35;100.00;98950.78;5071769;28;20029;-78
2022/06/21 05:46:28;;;;;;;;;;;;;;;13.95;100.00;98941.34;5060479;28;19925;-78
2022/06/21 05:48:56;;;;;;;;;;;;;;;14.21;100.00;98943.69;5046560;28;19931;-76
2022/06/21 05:51:28;;;;;;;;;;;;;;;14.67;100.00;98942.19;5059031;28;20465;-77
2022/06/21 05:54:00;;;;;;;;;;;;;;;14.94;100.00;98938.81;5070018;28;19964;-79
2022/06/21 05:56:29;;;;;;;;;;;;;;;15.22;100.00;98935.00;5065331;28;19934;-79
2022/06/21 05:59:00;;;;;;;;;;;;;;;15.22;100.00;98935.78;5071002;28;19982;-79
2022/06/21 06:01:29;;;;;;;;;;;;;;;15.57;100.00;98939.34;5071556;28;20011;-79
2022/06/21 06:04:03;;;;;;;;;;;;;;;15.54;100.00;98941.03;5071024;28;20314;-79
2022/06/21 06:06:36;;;;;;;;;;;;;;;15.48;100.00;98937.25;5096671;28;19928;-78
2022/06/21 06:09:07;;;;;;;;;;;;;;;15.58;100.00;98944.53;5070628;28;19924;-78
2022/06/21 06:11:58;;;;;;;;;;;;;;;15.62;100.00;98942.34;5050978;28;19925;-79
2022/06/21 06:14:32;;;;;;;;;;;;;;;15.53;100.00;98933.84;5083037;28;20254;-79
2022/06/21 06:17:02;;;;;;;;;;;;;;;15.78;100.00;98936.50;5050789;28;20375;-79
2022/06/21 06:19:37;;;;;;;;;;;;;;;16.34;100.00;98927.03;5049068;28;19998;-79
2022/06/21 06:22:07;;;;;;;;;;;;;;;16.60;100.00;98928.38;5083188;28;20012;-79
2022/06/21 06:24:36;;;;;;;;;;;;;;;16.84;100.00;98923.72;5059615;28;19924;-77
2022/06/21 06:27:19;;;;;;;;;;;;;;;17.11;100.00;98913.22;5069239;28;19963;-78
2022/06/21 06:29:48;;;;;;;;;;;;;;;17.23;100.00;98922.78;5070518;28;19924;-78
2022/06/21 06:32:28;;;;;;;;;;;;;;;16.79;100.00;98918.69;5070065;28;19979;-78
2022/06/21 06:34:56;;;;;;;;;;;;;;;16.43;100.00;98919.38;5070333;28;19929;-78
2022/06/21 06:37:38;;;;;;;;;;;;;;;16.20;100.00;98917.91;5069858;28;20274;-78
2022/06/21 06:40:14;;;;;;;;;;;;;;;16.19;100.00;98916.31;5071414;28;19960;-78
2022/06/21 06:42:43;;;;;;;;;;;;;;;15.79;100.00;98926.81;5073525;28;19929;-78
2022/06/21 06:45:20;;;;;;;;;;;;;;;16.10;100.00;98924.75;5056140;28;19925;-79
2022/06/21 06:48:03;;;;;;;;;;;;;;;16.39;100.00;98918.72;5049565;28;19975;-79
2022/06/21 06:50:30;;;;;;;;;;;;;;;16.72;100.00;98924.63;5062725;28;19951;-79
2022/06/21 06:53:01;;;;;;;;;;;;;;;16.65;100.00;98919.28;5085564;28;19928;-79
2022/06/21 06:55:33;;;;;;;;;;;;;;;16.62;100.00;98906.91;5070038;28;19925;-79
2022/06/21 06:58:34;;;;;;;;;;;;;;;17.70;100.00;98892.75;5070112;28;19936;-79
2022/06/21 07:01:04;;;;;;;;;;;;;;;18.49;100.00;98896.97;5068739;28;19955;-79
2022/06/21 07:03:34;;;;;;;;;;;;;;;19.28;100.00;98890.38;5066900;28;20337;-79
2022/06/21 07:06:04;;;;;;;;;;;;;;;20.26;100.00;98897.50;5068203;28;19968;-77
2022/06/21 07:08:43;;;;;;;;;;;;;;;21.44;100.00;98885.88;5037702;28;19925;-78
2022/06/21 07:11:19;;;;;;;;;;;;;;;22.26;100.00;98871.63;5064934;28;19924;-78
2022/06/21 07:13:47;;;;;;;;;;;;;;;23.00;100.00;98858.84;5064264;28;20341;-78
2022/06/21 07:16:18;;;;;;;;;;;;;;;24.30;100.00;98860.06;5058689;28;20017;-78
2022/06/21 07:18:53;;;;;;;;;;;;;;;25.37;100.00;98857.88;5064021;28;19925;-78
2022/06/21 07:21:21;;;;;;;;;;;;;;;26.07;100.00;98863.63;5069323;28;19924;-78
2022/06/21 07:23:49;;;;;;;;;;;;;;;26.23;100.00;98853.34;5055116;28;19932;-79
2022/06/21 07:26:22;;;;;;;;;;;;;;;25.97;100.00;98853.03;5048683;28;19935;-79
2022/06/21 07:28:54;;;;;;;;;;;;;;;26.63;100.00;98843.81;5054367;28;20390;-79
2022/06/21 07:31:22;;;;;;;;;;;;;;;26.71;100.00;98836.19;5057679;28;19925;-80
2022/06/21 07:33:52;;;;;;;;;;;;;;;26.93;100.00;98833.03;5050141;28;19931;-79
2022/06/21 07:36:21;;;;;;;;;;;;;;;27.85;100.00;98834.31;5066323;28;19970;-80
2022/06/21 07:39:14;;;;;;;;;;;;;;;28.67;100.00;98829.22;5055526;28;19924;-80
2022/06/21 07:41:46;;;;;;;;;;;;;;;28.51;100.00;98833.19;5052799;28;19932;-80
2022/06/21 07:44:22;;;;;;;;;;;;;;;27.67;100.00;98832.28;5048356;28;19932;-80
2022/06/21 07:46:56;;;;;;;;;;;;;;;26.66;100.00;98836.25;5056706;28;20023;-79
2022/06/21 07:49:30;;;;;;;;;;;;;;;26.77;100.00;98844.69;5056476;28;20020;-79
2022/06/21 07:52:11;;;;;;;;;;;;;;;28.16;100.00;98842.16;5066331;28;20359;-79
2022/06/21 07:54:43;;;;;;;;;;;;;;;28.17;100.00;98843.72;5067730;28;20379;-79
2022/06/21 07:57:14;;;;;;;;;;;;;;;28.48;100.00;98845.78;5062375;28;20011;-79
2022/06/21 07:59:45;;;;;;;;;;;;;;;28.47;100.00;98832.75;5067149;28;19925;-79
2022/06/21 08:08:18;;;;;;;;;;;;;;;27.03;100.00;98844.91;5013805;28;19940;-79
2022/06/21 08:10:53;;;;;;;;;;;;;;;25.63;100.00;98841.06;5035943;28;19926;-78
2022/06/21 08:13:23;;;;;;;;;;;;;;;24.85;100.00;98862.00;5002485;28;19948;-79
2022/06/21 08:15:55;;;;;;;;;;;;;;;23.92;100.00;98857.97;5014950;28;20057;-78
2022/06/21 08:18:39;;;;;;;;;;;;;;;23.17;100.00;98859.66;5014759;28;19964;-79
2022/06/21 08:21:09;;;;;;;;;;;;;;;22.43;100.00;98861.13;5009035;28;19930;-78
2022/06/21 08:24:00;;;;;;;;;;;;;;;22.74;100.00;98854.56;5009679;28;19926;-78
2022/06/21 08:26:27;;;;;;;;;;;;;;;22.93;100.00;98850.78;5010839;28;20903;-76
2022/06/21 08:29:01;;;;;;;;;;;;;;;23.39;100.00;98849.63;5010851;28;19932;-77
2022/06/21 08:31:36;;;;;;;;;;;;;;;23.57;100.00;98846.31;5009475;28;19930;-77
2022/06/21 08:34:12;;;;;;;;;;;;;;;24.06;100.00;98837.78;5009835;28;19996;-77
2022/06/21 08:36:47;;;;;;;;;;;;;;;24.07;100.00;98832.81;5010194;28;19940;-77
2022/06/21 08:39:20;;;;;;;;;;;;;;;24.59;100.00;98848.84;5026150;28;19925;-77
2022/06/21 08:42:19;;;;;;;;;;;;;;;25.29;100.00;98839.72;5015098;28;19926;-77
2022/06/21 08:45:40;;;;;;;;;;;;;;;25.10;100.00;98844.47;5018547;28;19949;-78
2022/06/21 08:47:51;;;;;;;;;;;;;;;25.56;100.00;98850.22;5029446;28;19925;-78
2022/06/21 08:50:19;;;;;;;;;;;;;;;24.66;100.00;98848.31;5029714;28;19925;-78
2022/06/21 08:52:46;;;;;;;;;;;;;;;24.05;100.00;98838.31;5029732;28;19925;-76
2022/06/21 08:55:20;;;;;;;;;;;;;;;23.68;100.00;98847.09;5026583;28;20012;-76
2022/06/21 08:58:04;;;;;;;;;;;;;;;23.63;100.00;98845.00;5029841;28;19925;-78
2022/06/21 09:00:52;;;;;;;;;;;;;;;23.99;100.00;98837.53;5030367;28;20016;-77
2022/06/21 09:03:32;;;;;;;;;;;;;;;24.56;100.00;98840.53;5028850;28;19932;-78
2022/06/21 09:06:18;;;;;;;;;;;;;;;24.39;100.00;98849.13;5028993;28;19975;-79
2022/06/21 09:08:45;;;;;;;;;;;;;;;24.08;100.00;98846.56;5020310;28;20399;-78
2022/06/21 09:11:34;;;;;;;;;;;;;;;24.45;100.00;98841.34;5029140;28;19975;-77
2022/06/21 09:14:09;;;;;;;;;;;;;;;25.12;100.00;98841.88;5027041;28;19939;-77
2022/06/21 09:16:55;;;;;;;;;;;;;;;26.55;100.00;98850.66;5017930;28;19926;-78
2022/06/21 09:19:39;;;;;;;;;;;;;;;27.56;100.00;98827.47;5011606;28;19972;-78
2022/06/21 09:22:25;;;;;;;;;;;;;;;26.90;100.00;98830.47;5052320;28;20532;-76
2022/06/21 09:24:58;;;;;;;;;;;;;;;26.03;100.00;98837.38;5091901;28;19951;-77
2022/06/21 09:27:27;;;;;;;;;;;;;;;26.44;100.00;98826.56;5072197;28;19925;-78
2022/06/21 09:30:12;;;;;;;;;;;;;;;26.71;100.00;98823.94;5059839;28;19936;-78
2022/06/21 09:32:51;;;;;;;;;;;;;;;26.08;100.00;98825.09;5071798;28;19990;-77
2022/06/21 09:35:38;;;;;;;;;;;;;;;25.32;100.00;98821.53;5072162;28;19931;-76
2022/06/21 09:38:25;;;;;;;;;;;;;;;25.56;100.00;98827.34;5071485;28;19932;-78
2022/06/21 09:40:59;;;;;;;;;;;;;;;25.04;100.00;98823.72;5071728;28;19962;-79
2022/06/21 09:45:14;;;;;;;;;;;;;;;24.78;100.00;98820.47;5087650;27;19916;-79
2022/06/21 09:47:59;;;;;;;;;;;;;;;25.17;100.00;98823.13;5086808;28;19931;-79
2022/06/21 09:50:35;;;;;;;;;;;;;;;25.43;100.00;98823.53;5086294;28;19928;-79
2022/06/21 09:53:05;;;;;;;;;;;;;;;25.72;100.00;98820.69;5087076;28;20341;-79
2022/06/21 09:55:51;;;;;;;;;;;;;;;26.19;100.00;98819.25;5087101;28;20538;-79
2022/06/21 09:58:21;;;;;;;;;;;;;;;26.28;100.00;98813.19;5086660;28;19929;-78
2022/06/21 10:00:57;;;;;;;;;;;;;;;26.01;100.00;98819.97;5119711;28;19929;-78
2022/06/21 10:03:36;;;;;;;;;;;;;;;25.23;100.00;98807.53;5086512;28;19969;-78
2022/06/21 10:06:07;;;;;;;;;;;;;;;24.63;100.00;98819.97;5086593;28;20349;-78
2022/06/21 10:09:01;;;;;;;;;;;;;;;24.84;100.00;98821.22;5087166;28;19924;-78
2022/06/21 10:11:31;;;;;;;;;;;;;;;24.38;100.00;98829.66;5085779;28;19928;-79
2022/06/21 10:14:17;;;;;;;;;;;;;;;24.43;100.00;98834.59;5086877;28;20367;-78
2022/06/21 10:16:50;;;;;;;;;;;;;;;24.48;100.00;98826.00;5086702;28;19940;-79
2022/06/21 10:19:30;;;;;;;;;;;;;;;24.39;100.00;98825.50;5086975;28;19924;-79
2022/06/21 10:22:18;;;;;;;;;;;;;;;25.00;100.00;98823.22;5107818;28;19930;-80
2022/06/21 10:25:06;;;;;;;;;;;;;;;25.23;100.00;98823.88;5087796;28;19960;-81
2022/06/21 10:27:39;;;;;;;;;;;;;;;25.39;100.00;98820.94;5079938;28;20265;-80
2022/06/21 10:30:06;;;;;;;;;;;;;;;25.46;100.00;98822.47;5086755;28;19924;-83
2022/06/21 10:32:33;;;;;;;;;;;;;;;25.45;100.00;98829.47;5086956;28;19939;-77
2022/06/21 10:35:19;;;;;;;;;;;;;;;25.80;100.00;98820.91;5087221;28;19925;-82
2022/06/21 10:38:01;;;;;;;;;;;;;;;25.99;100.00;98816.84;5086090;28;20483;-79
2022/06/21 10:40:28;;;;;;;;;;;;;;;25.63;100.00;98815.31;5085285;28;19970;-76
2022/06/21 10:43:13;;;;;;;;;;;;;;;26.07;100.00;98808.44;5087403;28;20406;-76
2022/06/21 10:45:47;;;;;;;;;;;;;;;26.11;100.00;98811.81;5089772;28;19952;-80
2022/06/21 10:48:24;;;;;;;;;;;;;;;25.89;100.00;98807.03;5086224;28;20018;-79
2022/06/21 10:51:11;;;;;;;;;;;;;;;26.13;100.00;98814.91;5105596;28;19981;-79
2022/06/21 10:53:38;;;;;;;;;;;;;;;26.01;100.00;98808.50;5106379;28;19928;-79
2022/06/21 10:59:16;;;;;;;;;;;;;;;25.47;100.00;98809.72;5092315;28;19925;-78
2022/06/21 11:01:46;;;;;;;;;;;;;;;24.44;100.00;98810.44;5094065;28;19924;-81
2022/06/21 11:04:25;;;;;;;;;;;;;;;24.82;100.00;98812.41;5093162;28;20449;-79
2022/06/21 11:07:06;;;;;;;;;;;;;;;24.62;100.00;98818.44;5093067;28;20446;-78
2022/06/21 11:09:52;;;;;;;;;;;;;;;24.12;100.00;98812.88;5091459;28;20006;-78
2022/06/21 11:15:26;;;;;;;;;;;;;;;24.55;100.00;98813.28;5092045;28;19936;-78
2022/06/21 11:17:53;;;;;;;;;;;;;;;24.17;100.00;98814.16;5092494;28;19928;-77
2022/06/21 11:20:29;;;;;;;;;;;;;;;24.86;100.00;98812.91;5057420;28;20010;-78
2022/06/21 11:23:13;;;;;;;;;;;;;;;25.24;100.00;98816.84;5092264;28;20411;-78
2022/06/21 11:25:43;;;;;;;;;;;;;;;25.02;100.00;98809.19;5091883;28;20023;-78
2022/06/21 11:28:13;;;;;;;;;;;;;;;25.57;100.00;98826.03;5091728;28;20424;-75
2022/06/21 11:31:00;;;;;;;;;;;;;;;25.36;100.00;98816.28;5092660;28;19924;-78
2022/06/21 11:33:46;;;;;;;;;;;;;;;25.30;100.00;98800.44;5089623;28;20003;-79
2022/06/21 11:36:20;;;;;;;;;;;;;;;25.35;100.00;98809.03;5073681;28;19924;-78
2022/06/21 11:38:50;;;;;;;;;;;;;;;25.36;100.00;98804.84;5067681;28;20391;-79
2022/06/21 11:44:29;;;;;;;;;;;;;;;25.70;100.00;98809.03;5071275;28;20011;-77
2022/06/21 11:47:01;;;;;;;;;;;;;;;25.15;100.00;98806.53;5071038;28;19928;-77
2022/06/21 11:49:31;;;;;;;;;;;;;;;25.00;100.00;98811.81;5071319;28;19932;-74
2022/06/21 11:52:20;;;;;;;;;;;;;;;25.28;100.00;98809.53;5070992;28;19925;-75
2022/06/21 11:54:54;;;;;;;;;;;;;;;24.57;100.00;98800.00;5070960;28;19948;-75
2022/06/21 11:57:27;;;;;;;;;;;;;;;24.08;100.00;98805.88;5069661;28;19928;-75
2022/06/21 12:00:00;;;;;;;;;;;;;;;24.02;100.00;98797.28;5069616;28;19925;-75
2022/06/21 12:02:53;;;;;;;;;;;;;;;24.09;100.00;98801.69;5069439;28;19931;-75
2022/06/21 12:05:33;;;;;;;;;;;;;;;24.25;100.00;98798.06;5071048;28;19930;-74
2022/06/21 12:08:01;;;;;;;;;;;;;;;24.37;100.00;98799.56;5064141;28;19924;-78
2022/06/21 12:10:44;;;;;;;;;;;;;;;24.52;100.00;98802.91;5085662;28;20023;-80
2022/06/21 12:13:13;;;;;;;;;;;;;;;24.95;100.00;98798.31;5077106;28;19925;-80
2022/06/21 12:15:49;;;;;;;;;;;;;;;24.60;100.00;98792.47;5068462;28;19925;-80
2022/06/21 12:18:35;;;;;;;;;;;;;;;24.79;100.00;98799.94;5063063;28;19929;-79
2022/06/21 12:21:05;;;;;;;;;;;;;;;25.22;100.00;98805.19;5084645;28;20030;-80
2022/06/21 12:23:41;;;;;;;;;;;;;;;25.51;100.00;98795.91;5090219;28;20260;-80
2022/06/21 12:26:13;;;;;;;;;;;;;;;25.59;100.00;98799.75;5070247;28;19929;-79
2022/06/21 12:29:00;;;;;;;;;;;;;;;25.41;100.00;98789.75;5081651;28;19972;-77
2022/06/21 12:31:50;;;;;;;;;;;;;;;25.03;100.00;98798.53;5048979;28;19978;-78
2022/06/21 12:34:40;;;;;;;;;;;;;;;25.32;100.00;98798.66;5054997;28;19936;-79
2022/06/21 12:37:29;;;;;;;;;;;;;;;25.22;100.00;98793.75;5077136;28;20493;-79
2022/06/21 12:40:17;;;;;;;;;;;;;;;25.56;100.00;98792.22;5069656;28;19936;-78
2022/06/21 12:43:29;;;;;;;;;;;;;;;25.53;100.00;98787.56;5070670;28;19932;-79
2022/06/21 12:46:41;;;;;;;;;;;;;;;25.80;100.00;98787.34;5071804;28;19931;-79
2022/06/21 12:49:30;;;;;;;;;;;;;;;25.23;100.00;98773.22;5054012;28;19971;-79
2022/06/21 12:52:36;;;;;;;;;;;;;;;25.27;100.00;98773.69;5071230;28;20584;-79
2022/06/21 12:55:38;;;;;;;;;;;;;;;25.64;100.00;98773.94;5050881;28;19932;-79
2022/06/21 12:58:47;;;;;;;;;;;;;;;25.11;100.00;98773.81;5059423;28;19969;-80
2022/06/21 13:01:33;;;;;;;;;;;;;;;24.70;100.00;98782.34;5074716;28;19931;-79
2022/06/21 13:04:18;;;;;;;;;;;;;;;25.04;100.00;98783.72;5090552;28;20005;-79
2022/06/21 13:07:24;;;;;;;;;;;;;;;25.36;100.00;98779.13;5091425;28;20418;-79
2022/06/21 13:10:28;;;;;;;;;;;;;;;25.33;100.00;98770.81;5085526;28;20005;-79
2022/06/21 13:13:22;;;;;;;;;;;;;;;25.71;100.00;98767.66;5090589;28;19931;-80
2022/06/21 13:16:23;;;;;;;;;;;;;;;25.14;100.00;98770.66;5091930;28;19945;-80
2022/06/21 13:19:11;;;;;;;;;;;;;;;25.18;100.00;98771.16;5089264;28;20117;-80
2022/06/21 13:22:09;;;;;;;;;;;;;;;24.90;100.00;98761.97;5071543;28;19939;-80
2022/06/21 13:25:04;;;;;;;;;;;;;;;25.14;100.00;98764.97;5071133;28;20319;-81
2022/06/21 13:27:53;;;;;;;;;;;;;;;25.20;100.00;98762.84;5070179;28;19931;-81
2022/06/21 13:30:41;;;;;;;;;;;;;;;25.60;100.00;98756.31;5069707;28;19935;-80
2022/06/21 13:33:46;;;;;;;;;;;;;;;25.85;100.00;98755.03;5071379;28;19931;-79
2022/06/21 13:36:47;;;;;;;;;;;;;;;25.52;100.00;98752.47;5069780;28;19978;-80
2022/06/21 13:39:32;;;;;;;;;;;;;;;25.58;100.00;98752.44;5097729;28;19936;-79